Time;durP1;ratioP1;P1;durP2;ratioP2;P2;SDS_P1;SDS_P2;PMS_P1;PMS_P2;Temp;Humidity;BMP_temperature;BMP_pressure;BME280_temperature;BME280_humidity;BME280_pressure;Samples;Min_cycle;Max_cycle;Signal;HPM_P1;HPM_P2
2022/10/11 00:01:56;;;;;;;16.85;8.23;;;;;;;3.83;100.00;102467.00;5268399;28;20077;-72
2022/10/11 00:04:26;;;;;;;23.70;9.57;;;;;;;3.82;100.00;102465.28;5257810;28;20100;-72
2022/10/11 00:06:56;;;;;;;23.08;9.77;;;;;;;3.81;100.00;102468.00;5277947;28;20032;-71
2022/10/11 00:09:27;;;;;;;21.60;8.93;;;;;;;3.82;100.00;102475.91;5272514;28;20437;-71
2022/10/11 00:11:58;;;;;;;17.67;8.18;;;;;;;3.98;100.00;102469.78;5272688;28;20034;-70
2022/10/11 00:14:29;;;;;;;16.13;8.48;;;;;;;4.02;100.00;102473.97;5277465;27;20028;-71
2022/10/11 00:16:59;;;;;;;20.80;8.80;;;;;;;4.01;100.00;102475.75;5279130;28;20691;-70
2022/10/11 00:19:30;;;;;;;19.40;8.18;;;;;;;3.95;100.00;102480.56;5274216;28;20106;-70
2022/10/11 00:22:01;;;;;;;20.00;8.45;;;;;;;3.89;100.00;102485.25;5272542;28;20039;-70
2022/10/11 00:24:31;;;;;;;24.77;8.70;;;;;;;3.82;100.00;102483.03;5278706;28;20023;-70
2022/10/11 00:27:02;;;;;;;19.45;7.65;;;;;;;3.76;100.00;102486.00;5277257;28;20095;-70
2022/10/11 00:29:33;;;;;;;19.17;8.40;;;;;;;3.70;100.00;102481.88;5270075;28;20024;-70
2022/10/11 00:32:04;;;;;;;17.85;7.65;;;;;;;3.70;100.00;102487.19;5272306;28;20036;-71
2022/10/11 00:34:34;;;;;;;18.60;6.75;;;;;;;3.77;100.00;102485.94;5274383;28;20082;-71
2022/10/11 00:37:05;;;;;;;15.55;7.65;;;;;;;3.77;100.00;102491.25;5271620;28;20419;-71
2022/10/11 00:39:35;;;;;;;19.33;6.93;;;;;;;3.72;100.00;102492.44;5278495;28;20483;-71
2022/10/11 00:42:11;;;;;;;13.18;7.35;;;;;;;3.67;100.00;102494.47;5263507;28;20056;-71
2022/10/11 00:44:45;;;;;;;24.70;7.97;;;;;;;3.60;100.00;102488.59;5278181;28;20495;-71
2022/10/11 00:47:22;;;;;;;17.40;7.20;;;;;;;3.50;100.00;102496.19;5285741;28;20031;-71
2022/10/11 00:49:57;;;;;;;30.02;8.68;;;;;;;3.40;100.00;102496.75;5285768;28;20557;-71
2022/10/11 00:52:39;;;;;;;22.17;9.63;;;;;;;3.33;100.00;102496.22;5275017;28;20024;-72
2022/10/11 00:55:17;;;;;;;23.98;9.95;;;;;;;3.32;100.00;102502.47;5278168;28;20062;-71
2022/10/11 00:57:49;;;;;;;16.92;8.57;;;;;;;3.31;100.00;102503.38;5280380;28;20027;-71
2022/10/11 01:00:19;;;;;;;92.43;13.20;;;;;;;3.31;100.00;102498.97;5277211;28;20055;-71
2022/10/11 01:02:50;;;;;;;66.85;11.52;;;;;;;3.27;100.00;102510.66;5269870;28;20115;-70
2022/10/11 01:05:21;;;;;;;19.48;8.40;;;;;;;3.22;100.00;102499.44;5264696;28;20504;-70
2022/10/11 01:07:52;;;;;;;15.13;7.72;;;;;;;3.19;100.00;102509.34;5282670;28;20024;-72
2022/10/11 01:10:23;;;;;;;19.45;8.73;;;;;;;3.23;100.00;102509.09;5276205;28;20024;-71
2022/10/11 01:13:17;;;;;;;27.33;9.75;;;;;;;3.28;100.00;102504.41;5266035;28;20043;-70
2022/10/11 01:16:04;;;;;;;25.65;10.00;;;;;;;3.26;100.00;102503.66;5263924;28;20020;-71
2022/10/11 01:18:55;;;;;;;19.40;8.98;;;;;;;3.25;100.00;102504.56;5267962;28;20032;-71
2022/10/11 01:22:26;;;;;;;26.65;10.35;;;;;;;3.31;100.00;102506.91;5268809;28;20028;-71
2022/10/11 01:25:38;;;;;;;24.67;10.25;;;;;;;3.28;100.00;102493.81;5279587;28;20031;-71
2022/10/11 01:28:53;;;;;;;27.73;10.13;;;;;;;3.23;100.00;102506.44;5269469;28;20028;-71
2022/10/11 01:31:31;;;;;;;25.73;10.15;;;;;;;3.21;100.00;102507.44;5268457;28;20031;-71
2022/10/11 01:34:26;;;;;;;19.13;8.27;;;;;;;3.16;100.00;102507.69;5262296;28;20019;-72
2022/10/11 01:37:16;;;;;;;20.88;9.00;;;;;;;3.11;100.00;102499.09;5281532;28;20550;-72
2022/10/11 01:39:52;;;;;;;23.65;11.18;;;;;;;3.09;100.00;102500.97;5260801;28;20028;-71
2022/10/11 01:42:25;;;;;;;21.73;8.60;;;;;;;3.06;100.00;102503.78;5268075;28;20034;-71
2022/10/11 01:44:57;;;;;;;17.67;8.60;;;;;;;3.08;100.00;102507.22;5281609;28;20092;-71
2022/10/11 01:47:27;;;;;;;14.00;8.10;;;;;;;3.10;100.00;102506.19;5268274;28;20016;-71
2022/10/11 01:50:00;;;;;;;16.73;7.63;;;;;;;3.10;100.00;102506.19;5268224;28;20469;-71
2022/10/11 01:52:34;;;;;;;24.02;8.57;;;;;;;3.07;100.00;102505.50;5280128;28;20024;-71
2022/10/11 01:55:20;;;;;;;22.20;9.18;;;;;;;3.00;100.00;102510.25;5288928;28;20027;-72
2022/10/11 01:58:15;;;;;;;35.58;10.50;;;;;;;2.94;100.00;102512.34;5275694;28;20028;-71
2022/10/11 02:01:11;;;;;;;25.60;9.82;;;;;;;2.93;100.00;102508.84;5277202;28;20035;-71
2022/10/11 02:03:48;;;;;;;26.90;9.25;;;;;;;2.94;100.00;102510.56;5263193;28;20032;-71
2022/10/11 02:06:37;;;;;;;19.98;8.77;;;;;;;2.94;100.00;102510.56;5281903;28;20023;-71
2022/10/11 02:09:29;;;;;;;17.50;8.88;;;;;;;2.93;100.00;102522.09;5283926;28;20081;-71
2022/10/11 02:12:06;;;;;;;20.05;8.02;;;;;;;2.89;100.00;102514.38;5289329;28;20024;-71
2022/10/11 02:14:46;;;;;;;22.15;9.50;;;;;;;2.89;100.00;102512.56;5288594;28;20489;-71
2022/10/11 02:17:20;;;;;;;17.25;8.20;;;;;;;2.85;100.00;102516.31;5288656;28;20031;-70
2022/10/11 02:19:55;;;;;;;16.83;8.55;;;;;;;2.83;100.00;102515.53;5287894;28;20055;-71
2022/10/11 02:22:29;;;;;;;;;;;;;;;2.79;100.00;102514.81;5286029;28;20020;-71
2022/10/11 02:25:05;;;;;;;113.10;11.73;;;;;;;2.71;100.00;102521.44;5277345;28;19939;-72
2022/10/11 02:27:39;;;;;;;84.05;13.05;;;;;;;2.59;100.00;102520.25;5276671;28;20046;-71
2022/10/11 02:30:10;;;;;;;17.48;9.60;;;;;;;2.51;100.00;102517.09;5267504;28;20412;-71
2022/10/11 02:32:43;;;;;;;20.90;9.77;;;;;;;2.46;100.00;102519.09;5266961;28;20039;-71
2022/10/11 02:35:14;;;;;;;25.40;10.40;;;;;;;2.45;100.00;102520.88;5273522;28;20032;-72
2022/10/11 02:38:16;;;;;;;34.97;11.63;;;;;;;2.47;100.00;102516.41;5271520;28;20505;-71
2022/10/11 02:40:53;;;;;;;28.25;12.13;;;;;;;2.49;100.00;102519.81;5254400;28;20026;-71
2022/10/11 02:43:39;;;;;;;25.63;11.00;;;;;;;2.47;100.00;102527.00;5284038;28;20282;-71
2022/10/11 02:46:10;;;;;;;30.02;10.18;;;;;;;2.48;100.00;102528.72;5288115;28;20020;-71
2022/10/11 02:48:41;;;;;;;20.90;9.80;;;;;;;2.48;100.00;102526.06;5282416;28;20036;-71
2022/10/11 02:51:13;;;;;;;21.15;10.52;;;;;;;2.46;100.00;102521.75;5279710;28;20062;-71
2022/10/11 02:53:43;;;;;;;23.15;9.68;;;;;;;2.46;100.00;102527.03;5267576;28;20028;-70
2022/10/11 02:56:14;;;;;;;21.50;9.88;;;;;;;2.44;100.00;102523.63;5268494;28;20047;-70
2022/10/11 02:58:45;;;;;;;20.52;8.75;;;;;;;2.43;100.00;102525.41;5288208;28;20434;-70
2022/10/11 03:01:15;;;;;;;23.08;9.05;;;;;;;2.39;100.00;102526.47;5284948;28;20027;-70
2022/10/11 03:03:46;;;;;;;25.30;10.55;;;;;;;2.33;100.00;102530.28;5263811;28;20024;-71
2022/10/11 03:06:16;;;;;;;19.55;8.50;;;;;;;2.31;100.00;102532.16;5281542;28;20027;-70
2022/10/11 03:08:47;;;;;;;17.38;8.50;;;;;;;2.33;100.00;102534.72;5275674;28;20453;-71
2022/10/11 03:11:17;;;;;;;28.77;11.02;;;;;;;2.32;100.00;102528.56;5280517;28;20032;-70
2022/10/11 03:13:48;;;;;;;28.23;8.95;;;;;;;2.29;100.00;102531.34;5266949;28;20366;-71
2022/10/11 03:16:18;;;;;;;20.60;8.05;;;;;;;2.26;100.00;102536.81;5287393;27;20028;-70
2022/10/11 03:18:48;;;;;;;20.33;8.48;;;;;;;2.24;100.00;102528.06;5287268;28;20024;-71
2022/10/11 03:21:19;;;;;;;18.60;8.35;;;;;;;2.24;100.00;102537.78;5288143;28;20019;-71
2022/10/11 03:23:50;;;;;;;22.23;7.97;;;;;;;2.25;100.00;102527.13;5287757;28;20104;-71
2022/10/11 03:26:20;;;;;;;25.42;8.75;;;;;;;2.27;100.00;102538.53;5287054;28;20118;-71
2022/10/11 03:28:51;;;;;;;24.58;8.48;;;;;;;2.31;100.00;102532.16;5278904;28;20103;-72
2022/10/11 03:31:22;;;;;;;20.10;8.63;;;;;;;2.31;100.00;102532.16;5276142;28;20028;-72
2022/10/11 03:33:53;;;;;;;19.17;8.60;;;;;;;2.25;100.00;102529.78;5273965;28;20061;-72
2022/10/11 03:36:23;;;;;;;20.60;8.75;;;;;;;2.19;100.00;102532.72;5280173;28;20106;-71
2022/10/11 03:38:53;;;;;;;19.98;8.27;;;;;;;2.15;100.00;102533.78;5273451;28;20098;-71
2022/10/11 03:41:24;;;;;;;23.00;8.80;;;;;;;2.12;100.00;102541.03;5273238;28;20059;-71
2022/10/11 03:43:54;;;;;;;14.93;7.40;;;;;;;2.11;100.00;102529.59;5286587;28;20445;-71
2022/10/11 03:46:25;;;;;;;40.95;6.70;;;;;;;2.05;100.00;102537.78;5286281;28;20057;-69
2022/10/11 03:48:55;;;;;;;30.67;7.82;;;;;;;1.98;100.00;102546.94;5278769;28;20045;-70
2022/10/11 03:51:26;;;;;;;109.18;12.88;;;;;;;1.92;100.00;102556.03;5282155;28;20028;-70
2022/10/11 03:53:57;;;;;;;72.25;9.48;;;;;;;1.86;100.00;102558.06;5287217;28;20024;-70
2022/10/11 03:56:27;;;;;;;18.02;6.90;;;;;;;1.80;100.00;102554.75;5282748;28;20481;-70
2022/10/11 03:58:57;;;;;;;15.98;7.28;;;;;;;1.80;100.00;102554.75;5276664;28;20454;-71
2022/10/11 04:01:29;;;;;;;18.30;8.50;;;;;;;1.84;100.00;102557.28;5286982;28;20063;-71
2022/10/11 04:03:59;;;;;;;18.77;8.30;;;;;;;1.86;100.00;102563.34;5264210;28;20504;-70
2022/10/11 04:06:30;;;;;;;17.20;8.40;;;;;;;1.87;100.00;102568.59;5283724;28;20028;-70
2022/10/11 04:09:01;;;;;;;19.83;8.75;;;;;;;1.86;100.00;102563.34;5284836;28;20042;-71
2022/10/11 04:11:31;;;;;;;23.52;10.30;;;;;;;1.86;100.00;102566.00;5260110;28;20015;-71
2022/10/11 04:14:02;;;;;;;24.90;9.30;;;;;;;1.87;100.00;102570.38;5286376;28;20485;-72
2022/10/11 04:16:34;;;;;;;23.58;9.60;;;;;;;1.87;100.00;102570.38;5286088;28;20027;-72
2022/10/11 04:19:05;;;;;;;20.45;8.95;;;;;;;1.85;100.00;102578.38;5286226;28;20032;-72
2022/10/11 04:21:35;;;;;;;28.95;9.18;;;;;;;1.84;100.00;102578.44;5275503;28;20112;-72
2022/10/11 04:24:06;;;;;;;31.58;9.27;;;;;;;1.83;100.00;102576.75;5272213;28;20023;-72
2022/10/11 04:26:37;;;;;;;19.80;9.13;;;;;;;1.80;100.00;102581.22;5270790;28;20016;-71
2022/10/11 04:29:07;;;;;;;19.30;9.50;;;;;;;1.79;100.00;102576.88;5274524;28;20030;-71
2022/10/11 04:31:38;;;;;;;32.53;10.13;;;;;;;1.81;100.00;102576.81;5272665;28;20027;-71
2022/10/11 04:34:08;;;;;;;23.13;8.80;;;;;;;1.80;100.00;102578.56;5272720;27;20027;-71
2022/10/11 04:36:38;;;;;;;22.98;8.90;;;;;;;1.77;100.00;102581.38;5271809;28;20023;-71
2022/10/11 04:39:09;;;;;;;24.55;9.32;;;;;;;1.74;100.00;102580.63;5278293;28;20020;-70
2022/10/11 04:41:40;;;;;;;29.58;9.77;;;;;;;1.72;100.00;102577.22;5265377;28;20023;-70
2022/10/11 04:44:10;;;;;;;27.88;9.95;;;;;;;1.68;100.00;102579.13;5271319;28;20104;-70
2022/10/11 04:46:40;;;;;;;26.13;7.80;;;;;;;1.70;100.00;102589.63;5277164;28;20075;-71
2022/10/11 04:49:11;;;;;;;19.92;9.05;;;;;;;1.74;100.00;102593.88;5281462;28;20111;-68
2022/10/11 04:51:42;;;;;;;29.63;9.85;;;;;;;1.74;100.00;102585.94;5277393;28;20055;-69
2022/10/11 04:54:12;;;;;;;20.98;8.82;;;;;;;1.72;100.00;102586.00;5272978;28;20296;-70
2022/10/11 04:56:43;;;;;;;28.27;9.02;;;;;;;1.73;100.00;102597.44;5278548;28;20024;-69
2022/10/11 04:59:13;;;;;;;20.88;8.63;;;;;;;1.74;100.00;102596.53;5273517;28;20024;-70
2022/10/11 05:01:44;;;;;;;22.20;8.73;;;;;;;1.72;100.00;102595.75;5277699;28;20380;-70
2022/10/11 05:04:14;;;;;;;20.40;7.97;;;;;;;1.68;100.00;102596.78;5275438;28;20091;-70
2022/10/11 05:06:45;;;;;;;31.20;9.73;;;;;;;1.67;100.00;102595.06;5282970;28;20025;-71
2022/10/11 05:09:15;;;;;;;21.63;8.73;;;;;;;1.68;100.00;102597.66;5273910;28;20111;-71
2022/10/11 05:11:46;;;;;;;17.83;9.82;;;;;;;1.73;100.00;102600.94;5276947;28;20012;-70
2022/10/11 05:14:17;;;;;;;20.27;6.38;;;;;;;1.78;100.00;102596.31;5279828;27;20413;-70
2022/10/11 05:16:47;;;;;;;96.10;9.80;;;;;;;1.84;100.00;102600.47;5283084;28;20055;-70
2022/10/11 05:19:18;;;;;;;14.18;6.97;;;;;;;1.88;100.00;102602.06;5279519;28;20430;-70
2022/10/11 05:21:48;;;;;;;19.80;9.38;;;;;;;1.97;100.00;102604.31;5271398;27;20026;-70
2022/10/11 05:24:18;;;;;;;35.17;10.43;;;;;;;2.08;100.00;102602.03;5268237;28;20027;-71
2022/10/11 05:26:49;;;;;;;23.05;10.93;;;;;;;2.18;100.00;102599.84;5269547;28;20085;-71
2022/10/11 05:29:19;;;;;;;29.55;10.95;;;;;;;2.24;100.00;102617.25;5259448;28;20431;-70
2022/10/11 05:31:50;;;;;;;29.40;13.32;;;;;;;2.28;100.00;102614.38;5288152;28;20388;-72
2022/10/11 05:34:20;;;;;;;24.33;11.98;;;;;;;2.31;100.00;102616.91;5287973;28;20051;-71
2022/10/11 05:36:51;;;;;;;32.20;12.48;;;;;;;2.38;100.00;102619.28;5288858;28;20062;-70
2022/10/11 05:39:21;;;;;;;31.88;12.68;;;;;;;2.48;100.00;102620.56;5286811;28;20032;-70
2022/10/11 05:41:51;;;;;;;40.10;12.25;;;;;;;2.56;100.00;102619.28;5268900;28;20133;-71
2022/10/11 05:44:22;;;;;;;22.90;9.07;;;;;;;2.63;100.00;102614.56;5269387;28;20107;-70
2022/10/11 05:46:52;;;;;;;26.55;9.23;;;;;;;2.65;100.00;102609.19;5280385;28;20016;-71
2022/10/11 05:49:23;;;;;;;19.20;7.70;;;;;;;2.60;100.00;102604.09;5268628;28;20024;-70
2022/10/11 05:51:53;;;;;;;20.58;8.48;;;;;;;2.60;100.00;102609.38;5278828;28;20065;-71
2022/10/11 05:54:24;;;;;;;24.58;9.25;;;;;;;2.66;100.00;102614.44;5275121;28;20407;-71
2022/10/11 05:56:54;;;;;;;22.92;9.30;;;;;;;2.66;100.00;102618.84;5269473;28;20028;-71
2022/10/11 05:59:25;;;;;;;25.75;9.15;;;;;;;2.64;100.00;102618.91;5279707;28;20475;-70
2022/10/11 06:01:55;;;;;;;27.15;9.52;;;;;;;2.60;100.00;102617.34;5268645;28;20023;-70
2022/10/11 06:04:25;;;;;;;21.17;8.90;;;;;;;2.58;100.00;102633.31;5272986;28;20039;-70
2022/10/11 06:06:56;;;;;;;32.60;10.13;;;;;;;2.59;100.00;102632.38;5289227;28;20409;-71
2022/10/11 06:09:26;;;;;;;30.00;10.77;;;;;;;2.59;100.00;102635.03;5280081;28;20016;-71
2022/10/11 06:11:57;;;;;;;31.10;10.27;;;;;;;2.59;100.00;102640.34;5279878;28;20055;-71
2022/10/11 06:14:28;;;;;;;25.10;10.48;;;;;;;2.59;100.00;102637.69;5276760;28;20039;-70
2022/10/11 06:16:58;;;;;;;28.95;9.80;;;;;;;2.58;100.00;102637.75;5286413;28;20485;-70
2022/10/11 06:19:29;;;;;;;20.48;9.00;;;;;;;2.60;100.00;102643.84;5268084;28;20107;-71
2022/10/11 06:21:59;;;;;;;26.42;9.93;;;;;;;2.62;100.00;102643.78;5267383;28;20027;-72
2022/10/11 06:24:29;;;;;;;21.98;8.90;;;;;;;2.60;100.00;102647.34;5267956;28;20578;-71
2022/10/11 06:27:00;;;;;;;20.08;9.07;;;;;;;2.58;100.00;102646.56;5264788;28;20028;-71
2022/10/11 06:29:30;;;;;;;21.35;8.82;;;;;;;2.62;100.00;102647.28;5279577;28;20039;-71
2022/10/11 06:32:02;;;;;;;24.45;8.80;;;;;;;2.70;100.00;102653.09;5288804;28;20447;-71
2022/10/11 06:34:33;;;;;;;34.58;10.55;;;;;;;2.77;100.00;102654.53;5285374;28;20077;-71
2022/10/11 06:37:03;;;;;;;40.03;13.38;;;;;;;2.85;100.00;102654.16;5288571;28;20035;-71
2022/10/11 06:39:34;;;;;;;26.13;11.35;;;;;;;2.91;100.00;102653.00;5281287;28;20031;-71
2022/10/11 06:42:04;;;;;;;39.42;15.38;;;;;;;2.98;100.00;102659.75;5276397;28;20396;-71
2022/10/11 06:44:35;;;;;;;29.75;13.90;;;;;;;3.01;100.00;102660.47;5270977;28;20032;-71
2022/10/11 06:47:06;;;;;;;27.00;11.48;;;;;;;3.14;100.00;102663.38;5277319;28;20104;-71
2022/10/11 06:49:37;;;;;;;44.08;16.33;;;;;;;3.26;100.00;102669.88;5251160;28;20032;-71
2022/10/11 06:52:08;;;;;;;69.07;16.80;;;;;;;3.44;100.00;102682.25;5267727;28;20042;-71
2022/10/11 06:54:38;;;;;;;63.40;12.73;;;;;;;3.63;100.00;102671.59;5280455;28;20031;-71
2022/10/11 06:57:09;;;;;;;114.30;16.23;;;;;;;3.95;100.00;102679.72;5277719;28;20027;-70
2022/10/11 06:59:39;;;;;;;114.70;17.02;;;;;;;4.25;100.00;102690.53;5285759;28;20389;-71
2022/10/11 07:02:10;;;;;;;68.78;15.23;;;;;;;4.55;100.00;102685.41;5272759;27;20028;-71
2022/10/11 07:04:40;;;;;;;61.35;13.70;;;;;;;4.90;100.00;102684.34;5271552;28;20019;-71
2022/10/11 07:07:14;;;;;;;30.13;12.20;;;;;;;5.18;100.00;102688.13;5285982;28;20501;-71
2022/10/11 07:09:44;;;;;;;35.00;14.27;;;;;;;5.40;100.00;102683.28;5277212;28;20110;-71
2022/10/11 07:12:15;;;;;;;67.85;14.98;;;;;;;5.69;100.00;102694.06;5278757;28;20034;-72
2022/10/11 07:14:46;;;;;;;30.60;11.60;;;;;;;6.06;100.00;102694.59;5275045;28;20046;-71
2022/10/11 07:17:16;;;;;;;18.75;9.88;;;;;;;6.37;100.00;102696.25;5267884;28;20016;-71
2022/10/11 07:19:47;;;;;;;26.10;14.00;;;;;;;6.76;100.00;102692.91;5276442;28;20080;-71
2022/10/11 07:22:17;;;;;;;26.75;13.55;;;;;;;7.09;100.00;102695.28;5276052;28;20027;-72
2022/10/11 07:24:48;;;;;;;22.35;11.02;;;;;;;7.45;100.00;102694.69;5258093;28;20036;-72
2022/10/11 07:27:21;;;;;;;22.15;8.40;;;;;;;7.91;100.00;102691.59;5272474;28;20106;-72
2022/10/11 07:29:51;;;;;;;11.60;7.10;;;;;;;8.29;100.00;102688.13;5273075;28;20111;-72
2022/10/11 07:32:22;;;;;;;20.48;7.65;;;;;;;8.69;100.00;102691.56;5274532;28;20106;-72
2022/10/11 07:34:52;;;;;;;17.15;7.75;;;;;;;9.14;100.00;102696.41;5278758;28;20031;-69
2022/10/11 07:37:23;;;;;;;21.25;7.65;;;;;;;9.42;100.00;102700.56;5264158;28;20051;-70
2022/10/11 07:39:53;;;;;;;13.25;7.10;;;;;;;9.61;100.00;102700.91;5282329;28;20110;-70
2022/10/11 07:42:23;;;;;;;21.98;7.78;;;;;;;9.74;100.00;102703.50;5285355;27;20066;-70
2022/10/11 07:44:54;;;;;;;14.18;7.18;;;;;;;9.83;100.00;102709.03;5271131;28;20047;-70
2022/10/11 07:47:25;;;;;;;16.75;8.07;;;;;;;10.01;100.00;102706.78;5272331;28;20388;-70
2022/10/11 07:49:55;;;;;;;14.43;7.07;;;;;;;10.19;100.00;102706.34;5284432;28;20030;-70
2022/10/11 07:52:26;;;;;;;12.48;6.88;;;;;;;10.49;100.00;102708.50;5272052;28;20040;-71
2022/10/11 07:54:56;;;;;;;14.40;7.53;;;;;;;10.69;100.00;102704.25;5284430;28;20035;-70
2022/10/11 07:57:26;;;;;;;19.48;8.82;;;;;;;10.87;100.00;102709.00;5271720;27;20028;-70
2022/10/11 07:59:57;;;;;;;21.88;8.80;;;;;;;11.13;100.00;102704.22;5284815;28;20019;-71
2022/10/11 08:02:27;;;;;;;23.58;9.70;;;;;;;11.49;100.00;102704.00;5280734;28;20036;-71
2022/10/11 08:04:58;;;;;;;19.40;8.30;;;;;;;11.86;100.00;102709.88;5274242;28;20088;-71
2022/10/11 08:07:28;;;;;;;16.75;8.77;;;;;;;12.18;100.00;102707.13;5271225;28;20016;-71
2022/10/11 08:09:59;;;;;;;14.25;8.52;;;;;;;12.22;100.00;102713.97;5271778;28;20023;-71
2022/10/11 08:12:29;;;;;;;15.32;8.50;;;;;;;12.41;100.00;102707.88;5263359;28;20024;-71
2022/10/11 08:15:00;;;;;;;19.65;9.00;;;;;;;12.65;100.00;102716.50;5276698;28;20035;-71
2022/10/11 08:17:30;;;;;;;16.25;8.05;;;;;;;12.88;100.00;102713.59;5277225;28;20482;-71
2022/10/11 08:20:01;;;;;;;19.55;8.43;;;;;;;13.07;100.00;102721.75;5265000;28;20027;-71
2022/10/11 08:22:31;;;;;;;15.52;7.82;;;;;;;13.18;100.00;102716.25;5265411;28;20481;-71
2022/10/11 08:25:02;;;;;;;17.73;7.72;;;;;;;13.44;100.00;102723.84;5264803;28;20396;-71
2022/10/11 08:27:33;;;;;;;18.65;7.63;;;;;;;13.65;100.00;102727.28;5273261;28;20089;-71
2022/10/11 08:30:04;;;;;;;20.27;8.18;;;;;;;13.67;100.00;102724.47;5269113;28;20408;-71
2022/10/11 08:32:34;;;;;;;16.60;7.07;;;;;;;13.89;100.00;102726.00;5278495;28;20362;-71
2022/10/11 08:35:06;;;;;;;19.23;7.50;;;;;;;14.57;100.00;102734.06;5273874;27;20065;-71
2022/10/11 08:37:36;;;;;;;17.30;7.60;;;;;;;14.37;100.00;102733.22;5274058;28;20031;-71
2022/10/11 08:40:09;;;;;;;13.77;6.88;;;;;;;14.43;100.00;102744.28;5264032;28;20431;-71
2022/10/11 08:42:56;;;;;;;16.95;7.03;;;;;;;14.96;100.00;102737.44;5268967;28;20054;-71
2022/10/11 08:45:41;;;;;;;21.38;7.70;;;;;;;15.38;100.00;102735.09;5273350;28;20655;-71
2022/10/11 08:48:20;;;;;;;16.73;5.88;;;;;;;15.36;100.00;102737.13;5266858;28;20032;-71
2022/10/11 08:50:53;;;;;;;16.80;6.95;;;;;;;15.41;100.00;102736.63;5274615;27;20111;-71
2022/10/11 08:53:44;;;;;;;19.38;6.63;;;;;;;15.26;100.00;102731.75;5263525;28;20103;-71
2022/10/11 08:56:16;;;;;;;17.38;6.10;;;;;;;15.62;100.00;102739.91;5271076;28;20385;-71
2022/10/11 08:59:00;;;;;;;22.88;7.32;;;;;;;16.04;100.00;102736.59;5268717;28;20493;-71
2022/10/11 09:01:31;;;;;;;18.40;6.18;;;;;;;16.33;100.00;102735.50;5273707;28;20031;-71
2022/10/11 09:04:02;;;;;;;14.93;4.10;;;;;;;16.90;100.00;102733.13;5268182;28;20032;-71
2022/10/11 09:06:54;;;;;;;15.38;4.63;;;;;;;17.53;100.00;102738.13;5261855;28;20102;-71
2022/10/11 09:09:49;;;;;;;15.07;5.88;;;;;;;17.05;100.00;102732.34;5268192;28;20023;-71
2022/10/11 09:12:38;;;;;;;24.17;5.90;;;;;;;16.98;100.00;102731.31;5267842;28;20042;-71
2022/10/11 09:15:19;;;;;;;14.73;6.18;;;;;;;17.09;100.00;102733.72;5267262;28;20071;-71
2022/10/11 09:18:13;;;;;;;15.13;4.70;;;;;;;17.32;100.00;102736.72;5270604;28;20028;-71
2022/10/11 09:20:56;;;;;;;16.27;5.18;;;;;;;17.29;100.00;102738.91;5267434;28;20024;-71
2022/10/11 09:24:03;;;;;;;16.05;4.90;;;;;;;17.18;100.00;102737.34;5276642;28;20028;-71
2022/10/11 09:26:46;;;;;;;17.33;4.78;;;;;;;17.32;100.00;102739.41;5274892;28;20019;-71
2022/10/11 09:29:45;;;;;;;14.10;4.20;;;;;;;17.52;100.00;102734.56;5267536;28;20501;-71
2022/10/11 09:32:20;;;;;;;13.55;3.78;;;;;;;17.66;100.00;102743.88;5272610;28;20060;-71
2022/10/11 09:34:58;;;;;;;8.77;2.90;;;;;;;17.44;100.00;102739.09;5272275;28;20478;-71
2022/10/11 09:37:34;;;;;;;16.63;3.95;;;;;;;17.41;100.00;102737.56;5273289;28;20038;-71
2022/10/11 09:40:11;;;;;;;19.90;3.97;;;;;;;17.20;100.00;102742.59;5270668;28;20026;-71
2022/10/11 09:42:41;;;;;;;16.52;3.00;;;;;;;17.30;100.00;102738.72;5268739;28;20113;-71
2022/10/11 09:45:18;;;;;;;14.07;3.83;;;;;;;17.32;100.00;102728.56;5274430;28;20020;-71
2022/10/11 09:47:51;;;;;;;13.60;2.95;;;;;;;17.18;100.00;102739.19;5281186;28;20027;-71
2022/10/11 09:50:28;;;;;;;13.27;2.60;;;;;;;17.17;100.00;102734.75;5266617;28;20027;-71
2022/10/11 09:53:03;;;;;;;20.48;4.15;;;;;;;17.15;100.00;102740.38;5268792;28;20473;-71
2022/10/11 09:55:43;;;;;;;15.52;3.38;;;;;;;17.22;100.00;102733.28;5269227;28;20056;-71
2022/10/11 09:58:27;;;;;;;15.90;3.58;;;;;;;17.34;100.00;102726.53;5266469;28;20032;-71
2022/10/11 10:01:01;;;;;;;11.82;3.45;;;;;;;17.34;100.00;102726.53;5270692;28;20023;-71
2022/10/11 10:03:36;;;;;;;16.02;3.47;;;;;;;17.36;100.00;102726.34;5266334;28;20105;-72
2022/10/11 10:06:17;;;;;;;18.05;2.28;;;;;;;17.34;100.00;102733.81;5269377;28;20046;-72
2022/10/11 10:08:47;;;;;;;8.20;2.60;;;;;;;17.49;100.00;102725.88;5266750;28;20028;-72
2022/10/11 10:11:18;;;;;;;11.82;2.35;;;;;;;17.45;100.00;102738.09;5266155;28;20030;-72
2022/10/11 10:13:54;;;;;;;20.10;2.45;;;;;;;17.33;100.00;102742.97;5270002;28;20543;-72
2022/10/11 10:16:28;;;;;;;12.63;2.85;;;;;;;17.33;100.00;102730.25;5259668;28;20141;-73
2022/10/11 10:19:02;;;;;;;10.57;2.05;;;;;;;17.38;100.00;102723.50;5267898;28;20039;-72
2022/10/11 10:21:43;;;;;;;8.20;2.60;;;;;;;17.31;100.00;102717.88;5265741;28;20039;-72
2022/10/11 10:24:26;;;;;;;9.02;2.47;;;;;;;17.29;100.00;102718.03;5266256;28;20427;-72
2022/10/11 10:27:27;;;;;;;9.70;2.50;;;;;;;17.41;100.00;102718.56;5264363;28;20064;-73
2022/10/11 10:30:02;;;;;;;16.90;2.72;;;;;;;17.52;100.00;102717.41;5264687;28;20036;-72
2022/10/11 10:32:59;;;;;;;12.65;2.63;;;;;;;17.29;100.00;102714.47;5264794;28;20020;-72
2022/10/11 10:35:51;;;;;;;8.98;2.13;;;;;;;17.31;100.00;102710.56;5269429;28;20115;-72
2022/10/11 10:38:40;;;;;;;8.18;2.00;;;;;;;17.53;98.00;102719.97;5265452;28;20047;-72
2022/10/11 10:41:13;;;;;;;16.38;2.60;;;;;;;17.23;100.00;102717.84;5267007;28;20028;-72
2022/10/11 10:43:50;;;;;;;21.27;3.08;;;;;;;17.05;100.00;102720.66;5274033;28;20062;-72
2022/10/11 10:46:33;;;;;;;8.15;3.10;;;;;;;17.02;100.00;102713.72;5271869;28;20084;-72
2022/10/11 10:49:24;;;;;;;13.60;2.67;;;;;;;17.06;100.00;102717.78;5270816;28;20047;-72
2022/10/11 10:52:04;;;;;;;11.32;2.88;;;;;;;17.10;100.00;102715.59;5271519;28;20031;-72
2022/10/11 10:54:37;;;;;;;12.82;3.20;;;;;;;17.16;100.00;102714.94;5265070;28;20078;-72
2022/10/11 10:57:37;;;;;;;11.30;2.47;;;;;;;17.32;100.00;102711.44;5269931;28;20035;-72
2022/10/11 11:00:20;;;;;;;7.35;1.90;;;;;;;17.22;100.00;102711.59;5263724;28;20070;-72
2022/10/11 11:03:07;;;;;;;12.48;2.58;;;;;;;17.29;100.00;102711.75;5266040;28;20023;-72
2022/10/11 11:05:58;;;;;;;14.63;2.35;;;;;;;17.36;100.00;102710.06;5269720;28;20336;-72
2022/10/11 11:08:41;;;;;;;12.68;2.15;;;;;;;17.35;94.49;102717.38;5264565;28;20035;-72
2022/10/11 11:11:30;;;;;;;12.57;2.30;;;;;;;17.27;92.74;102713.78;5257617;28;20497;-72
2022/10/11 11:14:15;;;;;;;15.10;2.65;;;;;;;17.23;90.44;102713.28;5269576;28;20503;-72
2022/10/11 11:17:14;;;;;;;11.65;2.05;;;;;;;17.28;93.22;102702.78;5274207;28;20508;-72
2022/10/11 11:19:57;;;;;;;19.08;2.15;;;;;;;17.38;95.01;102702.63;5274928;28;20489;-72
2022/10/11 11:22:52;;;;;;;8.32;1.80;;;;;;;17.16;89.64;102706.81;5271751;28;20016;-72
2022/10/11 11:25:44;;;;;;;11.95;2.33;;;;;;;16.94;100.00;102693.84;5274218;28;20024;-72
2022/10/11 11:28:43;;;;;;;14.25;1.98;;;;;;;16.96;94.26;102691.81;5274420;28;20032;-72
2022/10/11 11:31:52;;;;;;;13.57;2.30;;;;;;;16.73;100.00;102687.00;5274052;28;20028;-72
2022/10/11 11:34:32;;;;;;;10.18;2.45;;;;;;;16.69;97.81;102682.88;5271716;28;20346;-72
2022/10/11 11:37:21;;;;;;;14.75;2.30;;;;;;;16.80;100.00;102687.19;5271472;28;20031;-72
2022/10/11 11:40:16;;;;;;;9.75;2.15;;;;;;;16.78;96.25;102678.38;5272417;28;20047;-72
2022/10/11 11:42:50;;;;;;;8.70;2.05;;;;;;;16.81;98.38;102675.31;5269084;28;20047;-72
2022/10/11 11:45:33;;;;;;;14.48;2.42;;;;;;;16.98;98.96;102665.41;5271939;28;20027;-72
2022/10/11 11:48:18;;;;;;;16.15;2.67;;;;;;;17.16;98.99;102676.13;5274399;27;20912;-72
2022/10/11 11:50:52;;;;;;;16.17;2.72;;;;;;;17.23;96.89;102669.03;5274433;28;20020;-72
2022/10/11 11:53:58;;;;;;;12.97;2.87;;;;;;;17.20;99.18;102663.94;5273326;28;20070;-72